sensor_id;sensor_type;location;lat;lon;timestamp;temperature;humidity
53599;DHT22;39485;45.702;11.364;2022-12-18T00:01:32;4.30;99.90
53599;DHT22;39485;45.702;11.364;2022-12-18T00:04:00;4.30;99.90
53599;DHT22;39485;45.702;11.364;2022-12-18T00:06:28;4.20;99.90
53599;DHT22;39485;45.702;11.364;2022-12-18T00:08:55;4.20;99.90
53599;DHT22;39485;45.702;11.364;2022-12-18T00:11:24;4.10;99.90
53599;DHT22;39485;45.702;11.364;2022-12-18T00:13:50;4.10;99.90
53599;DHT22;39485;45.702;11.364;2022-12-18T00:16:19;4.00;99.90
53599;DHT22;39485;45.702;11.364;2022-12-18T00:18:57;4.00;99.90
53599;DHT22;39485;45.702;11.364;2022-12-18T00:21:24;4.00;99.90
53599;DHT22;39485;45.702;11.364;2022-12-18T00:23:50;4.00;99.90
53599;DHT22;39485;45.702;11.364;2022-12-18T00:26:22;4.00;99.90
53599;DHT22;39485;45.702;11.364;2022-12-18T00:28:49;3.90;99.90
53599;DHT22;39485;45.702;11.364;2022-12-18T00:31:17;3.90;99.90
53599;DHT22;39485;45.702;11.364;2022-12-18T00:33:43;3.90;99.90
53599;DHT22;39485;45.702;11.364;2022-12-18T00:36:14;3.80;99.90
53599;DHT22;39485;45.702;11.364;2022-12-18T00:38:41;3.80;99.90
53599;DHT22;39485;45.702;11.364;2022-12-18T00:41:08;3.80;99.90
53599;DHT22;39485;45.702;11.364;2022-12-18T00:43:34;3.80;99.90
53599;DHT22;39485;45.702;11.364;2022-12-18T00:46:00;3.70;99.90
53599;DHT22;39485;45.702;11.364;2022-12-18T00:48:25;3.70;99.90
53599;DHT22;39485;45.702;11.364;2022-12-18T00:50:51;3.70;99.90
53599;DHT22;39485;45.702;11.364;2022-12-18T00:53:17;3.60;99.90
53599;DHT22;39485;45.702;11.364;2022-12-18T00:55:46;3.60;99.90
53599;DHT22;39485;45.702;11.364;2022-12-18T00:58:13;3.60;99.90
53599;DHT22;39485;45.702;11.364;2022-12-18T01:00:39;3.50;99.90
53599;DHT22;39485;45.702;11.364;2022-12-18T01:03:05;3.50;99.90
53599;DHT22;39485;45.702;11.364;2022-12-18T01:05:32;3.50;99.90
53599;DHT22;39485;45.702;11.364;2022-12-18T01:07:58;3.50;99.90
53599;DHT22;39485;45.702;11.364;2022-12-18T01:10:24;3.40;99.90
53599;DHT22;39485;45.702;11.364;2022-12-18T01:12:51;3.40;99.90
53599;DHT22;39485;45.702;11.364;2022-12-18T01:15:17;3.40;99.90
53599;DHT22;39485;45.702;11.364;2022-12-18T01:17:43;3.30;99.90
53599;DHT22;39485;45.702;11.364;2022-12-18T01:20:10;3.30;99.90
53599;DHT22;39485;45.702;11.364;2022-12-18T01:22:36;3.30;99.90
53599;DHT22;39485;45.702;11.364;2022-12-18T01:25:03;3.30;99.90
53599;DHT22;39485;45.702;11.364;2022-12-18T01:27:30;3.20;99.90
53599;DHT22;39485;45.702;11.364;2022-12-18T01:29:55;3.30;99.90
53599;DHT22;39485;45.702;11.364;2022-12-18T01:32:22;3.20;99.90
53599;DHT22;39485;45.702;11.364;2022-12-18T01:34:47;3.20;99.90
53599;DHT22;39485;45.702;11.364;2022-12-18T01:37:13;3.20;99.90
53599;DHT22;39485;45.702;11.364;2022-12-18T01:39:39;3.20;99.90
53599;DHT22;39485;45.702;11.364;2022-12-18T01:42:11;3.10;99.90
53599;DHT22;39485;45.702;11.364;2022-12-18T01:44:58;3.10;99.90
53599;DHT22;39485;45.702;11.364;2022-12-18T01:48:06;3.10;99.90
53599;DHT22;39485;45.702;11.364;2022-12-18T01:52:53;3.00;99.90
53599;DHT22;39485;45.702;11.364;2022-12-18T01:55:23;3.00;99.90
53599;DHT22;39485;45.702;11.364;2022-12-18T01:57:52;3.00;99.90
53599;DHT22;39485;45.702;11.364;2022-12-18T02:00:21;2.90;99.90
53599;DHT22;39485;45.702;11.364;2022-12-18T02:02:47;3.00;99.90
53599;DHT22;39485;45.702;11.364;2022-12-18T02:05:22;2.90;99.90
53599;DHT22;39485;45.702;11.364;2022-12-18T02:08:16;2.90;99.90
53599;DHT22;39485;45.702;11.364;2022-12-18T02:13:46;2.90;99.90
53599;DHT22;39485;45.702;11.364;2022-12-18T02:22:29;2.80;99.90
53599;DHT22;39485;45.702;11.364;2022-12-18T02:27:40;2.80;99.90
53599;DHT22;39485;45.702;11.364;2022-12-18T02:30:07;2.80;99.90
53599;DHT22;39485;45.702;11.364;2022-12-18T02:32:40;2.70;99.90
53599;DHT22;39485;45.702;11.364;2022-12-18T02:35:12;2.70;99.90
53599;DHT22;39485;45.702;11.364;2022-12-18T02:37:40;2.70;99.90
53599;DHT22;39485;45.702;11.364;2022-12-18T02:40:08;2.70;99.90
53599;DHT22;39485;45.702;11.364;2022-12-18T02:42:34;2.70;99.90
53599;DHT22;39485;45.702;11.364;2022-12-18T02:45:00;2.70;99.90
53599;DHT22;39485;45.702;11.364;2022-12-18T02:47:31;2.70;99.90
53599;DHT22;39485;45.702;11.364;2022-12-18T02:50:02;2.70;99.90
53599;DHT22;39485;45.702;11.364;2022-12-18T02:52:32;2.60;99.90
53599;DHT22;39485;45.702;11.364;2022-12-18T02:55:08;2.70;99.90
53599;DHT22;39485;45.702;11.364;2022-12-18T02:57:48;2.70;99.90
53599;DHT22;39485;45.702;11.364;2022-12-18T03:05:35;2.60;99.90
53599;DHT22;39485;45.702;11.364;2022-12-18T03:08:06;2.60;99.90
53599;DHT22;39485;45.702;11.364;2022-12-18T03:10:38;2.60;99.90
53599;DHT22;39485;45.702;11.364;2022-12-18T03:13:16;2.60;99.90
53599;DHT22;39485;45.702;11.364;2022-12-18T03:15:49;2.60;99.90
53599;DHT22;39485;45.702;11.364;2022-12-18T03:18:30;2.50;99.90
53599;DHT22;39485;45.702;11.364;2022-12-18T03:21:01;2.60;99.90
53599;DHT22;39485;45.702;11.364;2022-12-18T03:23:32;2.50;99.90
53599;DHT22;39485;45.702;11.364;2022-12-18T03:26:05;2.50;99.90
53599;DHT22;39485;45.702;11.364;2022-12-18T03:28:35;2.50;99.90
53599;DHT22;39485;45.702;11.364;2022-12-18T03:31:04;2.50;99.90
53599;DHT22;39485;45.702;11.364;2022-12-18T03:34:01;2.50;99.90
53599;DHT22;39485;45.702;11.364;2022-12-18T03:36:29;2.40;99.90
53599;DHT22;39485;45.702;11.364;2022-12-18T03:38:55;2.50;99.90
53599;DHT22;39485;45.702;11.364;2022-12-18T03:41:32;2.50;99.90
53599;DHT22;39485;45.702;11.364;2022-12-18T03:44:12;2.50;99.90
53599;DHT22;39485;45.702;11.364;2022-12-18T03:49:38;2.40;99.90
53599;DHT22;39485;45.702;11.364;2022-12-18T03:52:18;2.40;99.90
53599;DHT22;39485;45.702;11.364;2022-12-18T03:54:46;2.40;99.90
53599;DHT22;39485;45.702;11.364;2022-12-18T03:57:19;2.40;99.90
53599;DHT22;39485;45.702;11.364;2022-12-18T03:59:48;2.30;99.90
53599;DHT22;39485;45.702;11.364;2022-12-18T04:02:16;2.30;99.90
53599;DHT22;39485;45.702;11.364;2022-12-18T04:04:43;2.30;99.90
53599;DHT22;39485;45.702;11.364;2022-12-18T04:07:10;2.30;99.90
53599;DHT22;39485;45.702;11.364;2022-12-18T04:09:39;2.30;99.90
53599;DHT22;39485;45.702;11.364;2022-12-18T04:12:06;2.30;99.90
53599;DHT22;39485;45.702;11.364;2022-12-18T04:14:31;2.30;99.90
53599;DHT22;39485;45.702;11.364;2022-12-18T04:17:01;2.20;99.90
53599;DHT22;39485;45.702;11.364;2022-12-18T04:19:27;2.20;99.90
53599;DHT22;39485;45.702;11.364;2022-12-18T04:21:54;2.20;99.90
53599;DHT22;39485;45.702;11.364;2022-12-18T04:24:19;2.20;99.90
53599;DHT22;39485;45.702;11.364;2022-12-18T04:26:45;2.20;99.90
53599;DHT22;39485;45.702;11.364;2022-12-18T04:29:11;2.20;99.90
53599;DHT22;39485;45.702;11.364;2022-12-18T04:31:37;2.10;99.90
53599;DHT22;39485;45.702;11.364;2022-12-18T04:34:03;2.10;99.90
53599;DHT22;39485;45.702;11.364;2022-12-18T04:36:29;2.10;99.90
53599;DHT22;39485;45.702;11.364;2022-12-18T04:38:55;2.10;99.90
53599;DHT22;39485;45.702;11.364;2022-12-18T04:41:21;2.10;99.90
53599;DHT22;39485;45.702;11.364;2022-12-18T04:43:46;2.10;99.90
53599;DHT22;39485;45.702;11.364;2022-12-18T04:46:12;2.00;99.90
53599;DHT22;39485;45.702;11.364;2022-12-18T04:48:38;2.00;99.90
53599;DHT22;39485;45.702;11.364;2022-12-18T04:51:05;2.00;99.90
53599;DHT22;39485;45.702;11.364;2022-12-18T04:53:31;2.00;99.90
53599;DHT22;39485;45.702;11.364;2022-12-18T04:56:10;2.00;99.90
53599;DHT22;39485;45.702;11.364;2022-12-18T04:58:38;2.00;99.90
53599;DHT22;39485;45.702;11.364;2022-12-18T05:01:05;2.00;99.90
53599;DHT22;39485;45.702;11.364;2022-12-18T05:03:30;2.00;99.90
53599;DHT22;39485;45.702;11.364;2022-12-18T05:05:57;2.00;99.90
53599;DHT22;39485;45.702;11.364;2022-12-18T05:08:22;2.00;99.90
53599;DHT22;39485;45.702;11.364;2022-12-18T05:10:48;2.00;99.90
53599;DHT22;39485;45.702;11.364;2022-12-18T05:13:14;2.00;99.90
53599;DHT22;39485;45.702;11.364;2022-12-18T05:15:40;2.00;99.90
53599;DHT22;39485;45.702;11.364;2022-12-18T05:18:07;2.00;99.90
53599;DHT22;39485;45.702;11.364;2022-12-18T05:20:33;2.00;99.90
53599;DHT22;39485;45.702;11.364;2022-12-18T05:22:59;2.00;99.90
53599;DHT22;39485;45.702;11.364;2022-12-18T05:25:25;2.00;99.90
53599;DHT22;39485;45.702;11.364;2022-12-18T05:27:50;1.90;99.90
53599;DHT22;39485;45.702;11.364;2022-12-18T05:30:16;1.90;99.90
53599;DHT22;39485;45.702;11.364;2022-12-18T05:32:42;1.90;99.90
53599;DHT22;39485;45.702;11.364;2022-12-18T05:35:10;1.90;99.90
53599;DHT22;39485;45.702;11.364;2022-12-18T05:37:36;1.90;99.90
53599;DHT22;39485;45.702;11.364;2022-12-18T05:40:03;1.90;99.90
53599;DHT22;39485;45.702;11.364;2022-12-18T05:42:29;1.90;99.90
53599;DHT22;39485;45.702;11.364;2022-12-18T05:44:55;1.90;99.90
53599;DHT22;39485;45.702;11.364;2022-12-18T05:47:21;1.90;99.90
53599;DHT22;39485;45.702;11.364;2022-12-18T05:49:46;1.90;99.90
53599;DHT22;39485;45.702;11.364;2022-12-18T05:52:12;1.90;99.90
53599;DHT22;39485;45.702;11.364;2022-12-18T05:54:38;1.90;99.90
53599;DHT22;39485;45.702;11.364;2022-12-18T05:57:04;1.90;99.90
53599;DHT22;39485;45.702;11.364;2022-12-18T05:59:30;1.90;99.90
53599;DHT22;39485;45.702;11.364;2022-12-18T06:01:55;1.90;99.90
53599;DHT22;39485;45.702;11.364;2022-12-18T06:04:21;1.90;99.90
53599;DHT22;39485;45.702;11.364;2022-12-18T06:06:47;1.90;99.90
53599;DHT22;39485;45.702;11.364;2022-12-18T06:09:12;1.90;99.90
53599;DHT22;39485;45.702;11.364;2022-12-18T06:11:38;1.80;99.90
53599;DHT22;39485;45.702;11.364;2022-12-18T06:14:05;1.80;99.90
53599;DHT22;39485;45.702;11.364;2022-12-18T06:16:31;1.80;99.90
53599;DHT22;39485;45.702;11.364;2022-12-18T06:19:02;1.80;99.90
53599;DHT22;39485;45.702;11.364;2022-12-18T06:21:28;1.80;99.90
53599;DHT22;39485;45.702;11.364;2022-12-18T06:23:54;1.80;99.90
53599;DHT22;39485;45.702;11.364;2022-12-18T06:26:20;1.80;99.90
53599;DHT22;39485;45.702;11.364;2022-12-18T06:28:46;1.80;99.90
53599;DHT22;39485;45.702;11.364;2022-12-18T06:31:12;1.80;99.90
53599;DHT22;39485;45.702;11.364;2022-12-18T06:33:38;1.70;99.90
53599;DHT22;39485;45.702;11.364;2022-12-18T06:36:11;1.80;99.90
53599;DHT22;39485;45.702;11.364;2022-12-18T06:38:39;1.80;99.90
53599;DHT22;39485;45.702;11.364;2022-12-18T06:41:12;1.80;99.90
53599;DHT22;39485;45.702;11.364;2022-12-18T06:43:38;1.80;99.90
53599;DHT22;39485;45.702;11.364;2022-12-18T06:46:05;1.80;99.90
53599;DHT22;39485;45.702;11.364;2022-12-18T06:48:32;1.80;99.90
53599;DHT22;39485;45.702;11.364;2022-12-18T06:50:58;1.80;99.90
53599;DHT22;39485;45.702;11.364;2022-12-18T06:53:24;1.80;99.90
53599;DHT22;39485;45.702;11.364;2022-12-18T06:55:50;1.80;99.90
53599;DHT22;39485;45.702;11.364;2022-12-18T06:58:23;1.80;99.90
53599;DHT22;39485;45.702;11.364;2022-12-18T07:00:51;1.80;99.90
53599;DHT22;39485;45.702;11.364;2022-12-18T07:03:17;1.80;99.90
53599;DHT22;39485;45.702;11.364;2022-12-18T07:05:43;1.70;99.90
53599;DHT22;39485;45.702;11.364;2022-12-18T07:08:08;1.70;99.90
53599;DHT22;39485;45.702;11.364;2022-12-18T07:10:41;1.70;99.90
53599;DHT22;39485;45.702;11.364;2022-12-18T07:13:06;1.70;99.90
53599;DHT22;39485;45.702;11.364;2022-12-18T07:15:32;1.70;99.90
53599;DHT22;39485;45.702;11.364;2022-12-18T07:17:58;1.70;99.90
53599;DHT22;39485;45.702;11.364;2022-12-18T07:20:23;1.70;99.90
53599;DHT22;39485;45.702;11.364;2022-12-18T07:22:49;1.80;99.90
53599;DHT22;39485;45.702;11.364;2022-12-18T07:25:15;1.80;99.90
53599;DHT22;39485;45.702;11.364;2022-12-18T07:27:40;1.80;99.90
53599;DHT22;39485;45.702;11.364;2022-12-18T07:30:07;1.80;99.90
53599;DHT22;39485;45.702;11.364;2022-12-18T07:32:32;1.80;99.90
53599;DHT22;39485;45.702;11.364;2022-12-18T07:34:58;1.80;99.90
53599;DHT22;39485;45.702;11.364;2022-12-18T07:37:24;1.80;99.90
53599;DHT22;39485;45.702;11.364;2022-12-18T07:39:49;1.80;99.90
53599;DHT22;39485;45.702;11.364;2022-12-18T07:42:15;1.90;99.90
53599;DHT22;39485;45.702;11.364;2022-12-18T07:44:56;1.90;99.90
53599;DHT22;39485;45.702;11.364;2022-12-18T07:47:22;1.90;99.90
53599;DHT22;39485;45.702;11.364;2022-12-18T07:49:47;1.90;99.90
53599;DHT22;39485;45.702;11.364;2022-12-18T07:52:13;2.00;99.90
53599;DHT22;39485;45.702;11.364;2022-12-18T07:54:39;2.10;99.90
53599;DHT22;39485;45.702;11.364;2022-12-18T07:57:06;2.10;99.90
53599;DHT22;39485;45.702;11.364;2022-12-18T07:59:32;2.20;99.90
53599;DHT22;39485;45.702;11.364;2022-12-18T08:01:57;2.20;99.90
53599;DHT22;39485;45.702;11.364;2022-12-18T08:04:24;2.30;99.90
53599;DHT22;39485;45.702;11.364;2022-12-18T08:06:50;2.30;99.90
53599;DHT22;39485;45.702;11.364;2022-12-18T08:09:15;2.40;99.90
53599;DHT22;39485;45.702;11.364;2022-12-18T08:11:41;2.40;99.90
53599;DHT22;39485;45.702;11.364;2022-12-18T08:14:07;2.50;99.90
53599;DHT22;39485;45.702;11.364;2022-12-18T08:16:33;2.60;99.90
53599;DHT22;39485;45.702;11.364;2022-12-18T08:18:58;2.60;99.90
53599;DHT22;39485;45.702;11.364;2022-12-18T08:21:27;2.70;99.90
53599;DHT22;39485;45.702;11.364;2022-12-18T08:23:54;2.70;99.90
53599;DHT22;39485;45.702;11.364;2022-12-18T08:26:21;2.80;99.90
53599;DHT22;39485;45.702;11.364;2022-12-18T08:28:47;2.90;99.90
53599;DHT22;39485;45.702;11.364;2022-12-18T08:31:13;2.90;99.90
53599;DHT22;39485;45.702;11.364;2022-12-18T08:33:39;3.00;99.90
53599;DHT22;39485;45.702;11.364;2022-12-18T08:36:05;3.00;99.90
53599;DHT22;39485;45.702;11.364;2022-12-18T08:38:32;3.10;99.90
53599;DHT22;39485;45.702;11.364;2022-12-18T08:41:02;3.10;99.90
53599;DHT22;39485;45.702;11.364;2022-12-18T08:43:29;3.20;99.90
53599;DHT22;39485;45.702;11.364;2022-12-18T08:46:13;3.30;99.90
53599;DHT22;39485;45.702;11.364;2022-12-18T08:48:41;3.30;99.90
53599;DHT22;39485;45.702;11.364;2022-12-18T08:51:07;3.40;99.90
53599;DHT22;39485;45.702;11.364;2022-12-18T08:53:35;3.50;99.90
53599;DHT22;39485;45.702;11.364;2022-12-18T08:56:01;3.50;99.90
53599;DHT22;39485;45.702;11.364;2022-12-18T08:58:27;3.60;99.90
53599;DHT22;39485;45.702;11.364;2022-12-18T09:00:52;3.60;99.90
53599;DHT22;39485;45.702;11.364;2022-12-18T09:03:19;3.80;99.90
53599;DHT22;39485;45.702;11.364;2022-12-18T09:05:48;3.80;99.90
53599;DHT22;39485;45.702;11.364;2022-12-18T09:08:14;3.80;99.90
53599;DHT22;39485;45.702;11.364;2022-12-18T09:10:43;3.90;99.90
53599;DHT22;39485;45.702;11.364;2022-12-18T09:13:11;4.00;99.90
53599;DHT22;39485;45.702;11.364;2022-12-18T09:15:44;4.00;99.90
53599;DHT22;39485;45.702;11.364;2022-12-18T09:18:15;4.10;99.90
53599;DHT22;39485;45.702;11.364;2022-12-18T09:20:41;4.10;99.90
53599;DHT22;39485;45.702;11.364;2022-12-18T09:23:07;4.20;99.90
53599;DHT22;39485;45.702;11.364;2022-12-18T09:25:33;4.20;99.90
53599;DHT22;39485;45.702;11.364;2022-12-18T09:28:13;4.30;99.90
53599;DHT22;39485;45.702;11.364;2022-12-18T09:30:45;4.30;99.90
53599;DHT22;39485;45.702;11.364;2022-12-18T09:33:11;4.40;99.90
53599;DHT22;39485;45.702;11.364;2022-12-18T09:35:39;4.40;99.90
53599;DHT22;39485;45.702;11.364;2022-12-18T09:38:06;4.50;99.90
53599;DHT22;39485;45.702;11.364;2022-12-18T09:40:45;4.50;99.90
53599;DHT22;39485;45.702;11.364;2022-12-18T09:43:24;4.50;99.90
53599;DHT22;39485;45.702;11.364;2022-12-18T09:45:57;4.60;99.90
53599;DHT22;39485;45.702;11.364;2022-12-18T09:48:45;4.60;99.90
53599;DHT22;39485;45.702;11.364;2022-12-18T09:51:17;4.70;99.90
53599;DHT22;39485;45.702;11.364;2022-12-18T09:54:12;4.70;99.90
53599;DHT22;39485;45.702;11.364;2022-12-18T09:56:41;4.80;99.90
53599;DHT22;39485;45.702;11.364;2022-12-18T09:59:21;4.90;99.90
53599;DHT22;39485;45.702;11.364;2022-12-18T10:01:48;4.90;99.90
53599;DHT22;39485;45.702;11.364;2022-12-18T10:04:14;5.00;99.90
53599;DHT22;39485;45.702;11.364;2022-12-18T10:07:06;5.00;99.90
53599;DHT22;39485;45.702;11.364;2022-12-18T10:10:11;5.10;99.90
53599;DHT22;39485;45.702;11.364;2022-12-18T10:12:41;5.10;99.90
53599;DHT22;39485;45.702;11.364;2022-12-18T10:20:48;5.30;99.90
53599;DHT22;39485;45.702;11.364;2022-12-18T10:23:23;5.20;99.90
53599;DHT22;39485;45.702;11.364;2022-12-18T10:28:36;5.30;99.90
53599;DHT22;39485;45.702;11.364;2022-12-18T10:31:04;5.40;99.90
53599;DHT22;39485;45.702;11.364;2022-12-18T10:33:31;5.30;99.90
53599;DHT22;39485;45.702;11.364;2022-12-18T10:35:58;5.40;99.90
53599;DHT22;39485;45.702;11.364;2022-12-18T10:38:24;5.40;99.90
53599;DHT22;39485;45.702;11.364;2022-12-18T10:41:00;5.50;99.90
53599;DHT22;39485;45.702;11.364;2022-12-18T10:48:28;5.70;99.90
53599;DHT22;39485;45.702;11.364;2022-12-18T10:50:55;5.70;99.90
53599;DHT22;39485;45.702;11.364;2022-12-18T10:53:27;5.80;99.90
53599;DHT22;39485;45.702;11.364;2022-12-18T10:55:56;5.80;99.90
53599;DHT22;39485;45.702;11.364;2022-12-18T11:34:36;6.20;99.90
53599;DHT22;39485;45.702;11.364;2022-12-18T11:37:03;6.20;99.90
53599;DHT22;39485;45.702;11.364;2022-12-18T11:39:37;6.20;99.90
53599;DHT22;39485;45.702;11.364;2022-12-18T11:42:27;6.20;99.90
53599;DHT22;39485;45.702;11.364;2022-12-18T11:45:14;6.30;99.90
53599;DHT22;39485;45.702;11.364;2022-12-18T11:48:37;6.30;99.90
53599;DHT22;39485;45.702;11.364;2022-12-18T11:50:49;6.30;99.90
53599;DHT22;39485;45.702;11.364;2022-12-18T11:53:16;6.30;99.90
53599;DHT22;39485;45.702;11.364;2022-12-18T12:01:50;6.30;99.90
53599;DHT22;39485;45.702;11.364;2022-12-18T12:07:12;6.40;99.90
53599;DHT22;39485;45.702;11.364;2022-12-18T12:35:07;6.50;99.90
53599;DHT22;39485;45.702;11.364;2022-12-18T12:40:27;6.60;99.90
53599;DHT22;39485;45.702;11.364;2022-12-18T12:43:02;6.70;99.90
53599;DHT22;39485;45.702;11.364;2022-12-18T12:51:07;6.80;99.90
53599;DHT22;39485;45.702;11.364;2022-12-18T12:53:36;6.80;99.90
53599;DHT22;39485;45.702;11.364;2022-12-18T12:56:04;6.90;99.90
53599;DHT22;39485;45.702;11.364;2022-12-18T13:09:30;7.00;99.90
53599;DHT22;39485;45.702;11.364;2022-12-18T13:12:03;7.00;99.90
53599;DHT22;39485;45.702;11.364;2022-12-18T13:14:49;7.00;99.90
53599;DHT22;39485;45.702;11.364;2022-12-18T13:17:16;7.00;99.90
53599;DHT22;39485;45.702;11.364;2022-12-18T13:19:43;7.10;99.90
53599;DHT22;39485;45.702;11.364;2022-12-18T13:22:22;7.10;99.90
53599;DHT22;39485;45.702;11.364;2022-12-18T13:24:49;7.20;99.90
53599;DHT22;39485;45.702;11.364;2022-12-18T14:36:04;6.90;99.90
53599;DHT22;39485;45.702;11.364;2022-12-18T14:48:54;6.60;99.90
53599;DHT22;39485;45.702;11.364;2022-12-18T15:01:37;6.20;99.90
53599;DHT22;39485;45.702;11.364;2022-12-18T15:04:05;6.00;99.90
53599;DHT22;39485;45.702;11.364;2022-12-18T15:06:47;6.00;99.90
53599;DHT22;39485;45.702;11.364;2022-12-18T15:09:23;5.80;99.90
53599;DHT22;39485;45.702;11.364;2022-12-18T15:11:54;5.70;99.90
53599;DHT22;39485;45.702;11.364;2022-12-18T15:16:53;5.60;99.90
53599;DHT22;39485;45.702;11.364;2022-12-18T15:19:22;5.50;99.90
53599;DHT22;39485;45.702;11.364;2022-12-18T15:21:51;5.30;99.90
53599;DHT22;39485;45.702;11.364;2022-12-18T15:24:26;5.30;99.90
53599;DHT22;39485;45.702;11.364;2022-12-18T15:26:53;5.20;99.90
53599;DHT22;39485;45.702;11.364;2022-12-18T15:29:21;5.10;99.90
53599;DHT22;39485;45.702;11.364;2022-12-18T15:32:14;5.00;99.90
53599;DHT22;39485;45.702;11.364;2022-12-18T15:34:43;4.90;99.90
53599;DHT22;39485;45.702;11.364;2022-12-18T15:37:09;4.90;99.90
53599;DHT22;39485;45.702;11.364;2022-12-18T15:39:34;4.80;99.90
53599;DHT22;39485;45.702;11.364;2022-12-18T15:42:01;4.70;99.90
53599;DHT22;39485;45.702;11.364;2022-12-18T15:44:46;4.70;99.90
53599;DHT22;39485;45.702;11.364;2022-12-18T15:47:12;4.60;99.90
53599;DHT22;39485;45.702;11.364;2022-12-18T15:49:38;4.50;99.90
53599;DHT22;39485;45.702;11.364;2022-12-18T15:52:05;4.50;99.90
53599;DHT22;39485;45.702;11.364;2022-12-18T15:54:31;4.40;99.90
53599;DHT22;39485;45.702;11.364;2022-12-18T15:57:15;4.40;99.90
53599;DHT22;39485;45.702;11.364;2022-12-18T15:59:54;4.30;99.90
53599;DHT22;39485;45.702;11.364;2022-12-18T16:02:22;4.30;99.90
53599;DHT22;39485;45.702;11.364;2022-12-18T16:04:49;4.20;99.90
53599;DHT22;39485;45.702;11.364;2022-12-18T16:07:15;4.20;99.90
53599;DHT22;39485;45.702;11.364;2022-12-18T16:09:41;4.20;99.90
53599;DHT22;39485;45.702;11.364;2022-12-18T16:12:21;4.10;99.90
53599;DHT22;39485;45.702;11.364;2022-12-18T16:14:47;4.10;99.90
53599;DHT22;39485;45.702;11.364;2022-12-18T16:17:13;4.00;99.90
53599;DHT22;39485;45.702;11.364;2022-12-18T16:19:39;4.00;99.90
53599;DHT22;39485;45.702;11.364;2022-12-18T16:22:05;4.00;99.90
53599;DHT22;39485;45.702;11.364;2022-12-18T16:24:33;3.90;99.90
53599;DHT22;39485;45.702;11.364;2022-12-18T16:27:01;3.90;99.90
53599;DHT22;39485;45.702;11.364;2022-12-18T16:29:28;3.90;99.90
53599;DHT22;39485;45.702;11.364;2022-12-18T16:31:55;3.80;99.90
53599;DHT22;39485;45.702;11.364;2022-12-18T16:34:23;3.80;99.90
53599;DHT22;39485;45.702;11.364;2022-12-18T16:36:52;3.80;99.90
53599;DHT22;39485;45.702;11.364;2022-12-18T16:39:21;3.70;99.90
53599;DHT22;39485;45.702;11.364;2022-12-18T16:41:47;3.70;99.90
53599;DHT22;39485;45.702;11.364;2022-12-18T16:44:14;3.60;99.90
53599;DHT22;39485;45.702;11.364;2022-12-18T16:46:40;3.60;99.90
53599;DHT22;39485;45.702;11.364;2022-12-18T16:49:11;3.60;99.90
53599;DHT22;39485;45.702;11.364;2022-12-18T16:51:37;3.60;99.90
53599;DHT22;39485;45.702;11.364;2022-12-18T16:54:03;3.50;99.90
53599;DHT22;39485;45.702;11.364;2022-12-18T16:56:29;3.50;99.90
53599;DHT22;39485;45.702;11.364;2022-12-18T16:58:58;3.50;99.90
53599;DHT22;39485;45.702;11.364;2022-12-18T17:01:25;3.50;99.90
53599;DHT22;39485;45.702;11.364;2022-12-18T17:03:55;3.40;99.90
53599;DHT22;39485;45.702;11.364;2022-12-18T17:06:22;3.40;99.90
53599;DHT22;39485;45.702;11.364;2022-12-18T17:08:57;3.40;99.90
53599;DHT22;39485;45.702;11.364;2022-12-18T17:11:24;3.30;99.90
53599;DHT22;39485;45.702;11.364;2022-12-18T17:13:51;3.30;99.90
53599;DHT22;39485;45.702;11.364;2022-12-18T17:16:17;3.30;99.90
53599;DHT22;39485;45.702;11.364;2022-12-18T17:18:43;3.20;99.90
53599;DHT22;39485;45.702;11.364;2022-12-18T17:21:09;3.20;99.90
53599;DHT22;39485;45.702;11.364;2022-12-18T17:23:36;3.20;99.90
53599;DHT22;39485;45.702;11.364;2022-12-18T17:26:02;3.20;99.90
53599;DHT22;39485;45.702;11.364;2022-12-18T17:28:31;3.10;99.90
53599;DHT22;39485;45.702;11.364;2022-12-18T17:30:57;3.10;99.90
53599;DHT22;39485;45.702;11.364;2022-12-18T17:33:24;3.10;99.90
53599;DHT22;39485;45.702;11.364;2022-12-18T17:35:50;3.10;99.90
53599;DHT22;39485;45.702;11.364;2022-12-18T17:38:16;3.00;99.90
53599;DHT22;39485;45.702;11.364;2022-12-18T17:40:42;3.00;99.90
53599;DHT22;39485;45.702;11.364;2022-12-18T17:43:09;3.00;99.90
53599;DHT22;39485;45.702;11.364;2022-12-18T17:45:38;3.00;99.90
53599;DHT22;39485;45.702;11.364;2022-12-18T17:48:05;2.90;99.90
53599;DHT22;39485;45.702;11.364;2022-12-18T17:50:33;2.90;99.90
53599;DHT22;39485;45.702;11.364;2022-12-18T17:52:59;2.90;99.90
53599;DHT22;39485;45.702;11.364;2022-12-18T17:55:25;2.90;99.90
53599;DHT22;39485;45.702;11.364;2022-12-18T17:57:51;2.90;99.90
53599;DHT22;39485;45.702;11.364;2022-12-18T18:00:16;2.80;99.90
53599;DHT22;39485;45.702;11.364;2022-12-18T18:02:43;2.80;99.90
53599;DHT22;39485;45.702;11.364;2022-12-18T18:05:09;2.80;99.90
53599;DHT22;39485;45.702;11.364;2022-12-18T18:07:36;2.80;99.90
53599;DHT22;39485;45.702;11.364;2022-12-18T18:10:02;2.80;99.90
53599;DHT22;39485;45.702;11.364;2022-12-18T18:12:28;2.80;99.90
53599;DHT22;39485;45.702;11.364;2022-12-18T18:15:12;2.80;99.90
53599;DHT22;39485;45.702;11.364;2022-12-18T18:17:37;2.80;99.90
53599;DHT22;39485;45.702;11.364;2022-12-18T18:20:03;2.70;99.90
53599;DHT22;39485;45.702;11.364;2022-12-18T18:22:31;2.80;99.90
53599;DHT22;39485;45.702;11.364;2022-12-18T18:24:57;2.70;99.90
53599;DHT22;39485;45.702;11.364;2022-12-18T18:27:23;2.70;99.90
53599;DHT22;39485;45.702;11.364;2022-12-18T18:29:49;2.70;99.90
53599;DHT22;39485;45.702;11.364;2022-12-18T18:32:15;2.70;99.90
53599;DHT22;39485;45.702;11.364;2022-12-18T18:34:41;2.70;99.90
53599;DHT22;39485;45.702;11.364;2022-12-18T18:37:08;2.70;99.90
53599;DHT22;39485;45.702;11.364;2022-12-18T18:39:35;2.60;99.90
53599;DHT22;39485;45.702;11.364;2022-12-18T18:42:01;2.60;99.90
53599;DHT22;39485;45.702;11.364;2022-12-18T18:44:26;2.60;99.90
53599;DHT22;39485;45.702;11.364;2022-12-18T18:46:56;2.60;99.90
53599;DHT22;39485;45.702;11.364;2022-12-18T18:49:23;2.60;99.90
53599;DHT22;39485;45.702;11.364;2022-12-18T18:51:52;2.60;99.90
53599;DHT22;39485;45.702;11.364;2022-12-18T18:54:18;2.60;99.90
53599;DHT22;39485;45.702;11.364;2022-12-18T18:56:45;2.50;99.90
53599;DHT22;39485;45.702;11.364;2022-12-18T18:59:12;2.50;99.90
53599;DHT22;39485;45.702;11.364;2022-12-18T19:01:38;2.50;99.90
53599;DHT22;39485;45.702;11.364;2022-12-18T19:04:04;2.50;99.90
53599;DHT22;39485;45.702;11.364;2022-12-18T19:06:29;2.40;99.90
53599;DHT22;39485;45.702;11.364;2022-12-18T19:08:55;2.40;99.90
53599;DHT22;39485;45.702;11.364;2022-12-18T19:11:22;2.40;99.90
53599;DHT22;39485;45.702;11.364;2022-12-18T19:14:09;2.30;99.90
53599;DHT22;39485;45.702;11.364;2022-12-18T19:16:35;2.30;99.90
53599;DHT22;39485;45.702;11.364;2022-12-18T19:19:01;2.30;99.90